Terminal Aerodrome Forecast
Issued by NWS

Home | Current Version | Previous Version | Text Only | Print | Product List | Glossary On
Versions: 1 2 3 4 5 6 7 8 9 10 11 12 13
720
FTUS45 KVEF 252336
TAFEED
TAF
KEED 252336Z 2600/2624 VRB05KT P6SM SCT100
     FM260300 22009KT P6SM FEW100
     FM261400 VRB06KT P6SM SKC
     FM262000 19010KT P6SM FEW100=

USA.gov is the U.S. government's official web portal to all federal, state and local government web resources and services.